sensor_id;sensor_type;location;lat;lon;timestamp;P1;durP1;ratioP1;P2;durP2;ratioP2
27847;SDS011;15212;48.830;8.730;2023-01-10T00:01:59;2.72;;;1.20;;
27847;SDS011;15212;48.830;8.730;2023-01-10T00:04:28;1.82;;;1.22;;
27847;SDS011;15212;48.830;8.730;2023-01-10T00:06:56;4.15;;;1.22;;
27847;SDS011;15212;48.830;8.730;2023-01-10T00:09:24;2.35;;;0.90;;
27847;SDS011;15212;48.830;8.730;2023-01-10T00:11:53;0.85;;;0.82;;
27847;SDS011;15212;48.830;8.730;2023-01-10T00:14:39;1.92;;;1.10;;
27847;SDS011;15212;48.830;8.730;2023-01-10T00:17:07;3.37;;;1.22;;
27847;SDS011;15212;48.830;8.730;2023-01-10T00:19:35;1.42;;;1.00;;
27847;SDS011;15212;48.830;8.730;2023-01-10T00:22:04;1.55;;;1.07;;
27847;SDS011;15212;48.830;8.730;2023-01-10T00:24:33;1.00;;;0.90;;
27847;SDS011;15212;48.830;8.730;2023-01-10T00:27:03;3.10;;;1.30;;
27847;SDS011;15212;48.830;8.730;2023-01-10T00:29:33;6.20;;;1.30;;
27847;SDS011;15212;48.830;8.730;2023-01-10T00:32:02;1.20;;;1.00;;
27847;SDS011;15212;48.830;8.730;2023-01-10T00:34:31;1.50;;;1.00;;
27847;SDS011;15212;48.830;8.730;2023-01-10T00:37:00;1.15;;;0.90;;
27847;SDS011;15212;48.830;8.730;2023-01-10T00:39:28;2.05;;;1.10;;
27847;SDS011;15212;48.830;8.730;2023-01-10T00:41:57;2.00;;;0.90;;
27847;SDS011;15212;48.830;8.730;2023-01-10T00:47:14;1.15;;;0.95;;
27847;SDS011;15212;48.830;8.730;2023-01-10T00:49:43;0.88;;;0.68;;
27847;SDS011;15212;48.830;8.730;2023-01-10T00:52:11;1.00;;;0.70;;
27847;SDS011;15212;48.830;8.730;2023-01-10T00:54:40;0.62;;;0.50;;
27847;SDS011;15212;48.830;8.730;2023-01-10T00:57:08;0.88;;;0.78;;
27847;SDS011;15212;48.830;8.730;2023-01-10T00:59:37;0.65;;;0.65;;
27847;SDS011;15212;48.830;8.730;2023-01-10T01:02:05;2.77;;;0.60;;
27847;SDS011;15212;48.830;8.730;2023-01-10T01:04:33;0.90;;;0.70;;
27847;SDS011;15212;48.830;8.730;2023-01-10T01:07:02;0.68;;;0.53;;
27847;SDS011;15212;48.830;8.730;2023-01-10T01:09:30;0.53;;;0.50;;
27847;SDS011;15212;48.830;8.730;2023-01-10T01:11:58;0.78;;;0.57;;
27847;SDS011;15212;48.830;8.730;2023-01-10T01:14:27;1.35;;;0.65;;
27847;SDS011;15212;48.830;8.730;2023-01-10T01:16:55;0.65;;;0.50;;
27847;SDS011;15212;48.830;8.730;2023-01-10T01:19:24;1.95;;;0.75;;
27847;SDS011;15212;48.830;8.730;2023-01-10T01:21:53;3.30;;;0.88;;
27847;SDS011;15212;48.830;8.730;2023-01-10T01:24:21;2.45;;;1.02;;
27847;SDS011;15212;48.830;8.730;2023-01-10T01:26:50;3.58;;;0.90;;
27847;SDS011;15212;48.830;8.730;2023-01-10T01:29:18;1.72;;;1.20;;
27847;SDS011;15212;48.830;8.730;2023-01-10T01:31:47;3.52;;;1.07;;
27847;SDS011;15212;48.830;8.730;2023-01-10T01:34:15;2.10;;;0.90;;
27847;SDS011;15212;48.830;8.730;2023-01-10T01:36:43;4.37;;;1.00;;
27847;SDS011;15212;48.830;8.730;2023-01-10T01:39:13;5.03;;;1.17;;
27847;SDS011;15212;48.830;8.730;2023-01-10T01:41:42;1.98;;;1.20;;
27847;SDS011;15212;48.830;8.730;2023-01-10T01:44:23;1.90;;;1.10;;
27847;SDS011;15212;48.830;8.730;2023-01-10T01:47:11;3.12;;;0.95;;
27847;SDS011;15212;48.830;8.730;2023-01-10T01:49:37;2.37;;;0.93;;
27847;SDS011;15212;48.830;8.730;2023-01-10T01:52:09;4.17;;;1.30;;
27847;SDS011;15212;48.830;8.730;2023-01-10T01:54:40;1.57;;;0.98;;
27847;SDS011;15212;48.830;8.730;2023-01-10T01:57:11;1.32;;;0.95;;
27847;SDS011;15212;48.830;8.730;2023-01-10T01:59:43;5.03;;;1.40;;
27847;SDS011;15212;48.830;8.730;2023-01-10T02:02:15;2.08;;;1.10;;
27847;SDS011;15212;48.830;8.730;2023-01-10T02:04:51;1.65;;;1.10;;
27847;SDS011;15212;48.830;8.730;2023-01-10T02:07:38;1.55;;;0.72;;
27847;SDS011;15212;48.830;8.730;2023-01-10T02:10:12;5.12;;;0.82;;
27847;SDS011;15212;48.830;8.730;2023-01-10T02:12:44;2.20;;;1.05;;
27847;SDS011;15212;48.830;8.730;2023-01-10T02:15:13;2.12;;;0.98;;
27847;SDS011;15212;48.830;8.730;2023-01-10T02:17:47;1.02;;;0.93;;
27847;SDS011;15212;48.830;8.730;2023-01-10T02:20:18;2.35;;;1.00;;
27847;SDS011;15212;48.830;8.730;2023-01-10T02:22:54;1.52;;;1.05;;
27847;SDS011;15212;48.830;8.730;2023-01-10T02:25:42;1.55;;;1.00;;
27847;SDS011;15212;48.830;8.730;2023-01-10T02:40:41;4.72;;;1.42;;
27847;SDS011;15212;48.830;8.730;2023-01-10T02:43:30;4.50;;;1.52;;
27847;SDS011;15212;48.830;8.730;2023-01-10T02:46:12;3.47;;;1.90;;
27847;SDS011;15212;48.830;8.730;2023-01-10T02:51:16;5.90;;;1.52;;
27847;SDS011;15212;48.830;8.730;2023-01-10T02:53:56;3.70;;;1.40;;
27847;SDS011;15212;48.830;8.730;2023-01-10T02:56:46;9.88;;;1.50;;
27847;SDS011;15212;48.830;8.730;2023-01-10T03:02:52;1.42;;;1.00;;
27847;SDS011;15212;48.830;8.730;2023-01-10T03:05:43;4.12;;;1.20;;
27847;SDS011;15212;48.830;8.730;2023-01-10T03:08:26;4.05;;;1.60;;
27847;SDS011;15212;48.830;8.730;2023-01-10T03:11:13;3.67;;;1.17;;
27847;SDS011;15212;48.830;8.730;2023-01-10T03:13:45;7.95;;;1.40;;
27847;SDS011;15212;48.830;8.730;2023-01-10T03:18:53;5.83;;;1.40;;
27847;SDS011;15212;48.830;8.730;2023-01-10T03:21:30;4.60;;;1.32;;
27847;SDS011;15212;48.830;8.730;2023-01-10T03:24:12;9.55;;;1.30;;
27847;SDS011;15212;48.830;8.730;2023-01-10T03:32:18;3.62;;;1.42;;
27847;SDS011;15212;48.830;8.730;2023-01-10T03:34:49;7.05;;;1.80;;
27847;SDS011;15212;48.830;8.730;2023-01-10T03:37:28;3.60;;;1.65;;
27847;SDS011;15212;48.830;8.730;2023-01-10T03:43:00;6.45;;;1.87;;
27847;SDS011;15212;48.830;8.730;2023-01-10T03:46:00;7.00;;;1.82;;
27847;SDS011;15212;48.830;8.730;2023-01-10T03:48:38;7.60;;;2.08;;
27847;SDS011;15212;48.830;8.730;2023-01-10T03:51:08;4.95;;;1.90;;
27847;SDS011;15212;48.830;8.730;2023-01-10T03:53:38;5.53;;;1.77;;
27847;SDS011;15212;48.830;8.730;2023-01-10T03:56:07;6.22;;;1.80;;
27847;SDS011;15212;48.830;8.730;2023-01-10T03:58:39;5.42;;;1.72;;
27847;SDS011;15212;48.830;8.730;2023-01-10T04:01:08;5.17;;;1.62;;
27847;SDS011;15212;48.830;8.730;2023-01-10T04:03:36;13.45;;;2.10;;
27847;SDS011;15212;48.830;8.730;2023-01-10T04:06:05;6.75;;;1.62;;
27847;SDS011;15212;48.830;8.730;2023-01-10T04:08:33;6.03;;;1.52;;
27847;SDS011;15212;48.830;8.730;2023-01-10T04:11:02;8.48;;;2.15;;
27847;SDS011;15212;48.830;8.730;2023-01-10T04:13:31;9.78;;;1.60;;
27847;SDS011;15212;48.830;8.730;2023-01-10T04:15:59;9.35;;;1.77;;
27847;SDS011;15212;48.830;8.730;2023-01-10T04:18:27;4.75;;;1.47;;
27847;SDS011;15212;48.830;8.730;2023-01-10T04:20:56;8.15;;;2.20;;
27847;SDS011;15212;48.830;8.730;2023-01-10T04:23:24;8.68;;;2.30;;
27847;SDS011;15212;48.830;8.730;2023-01-10T04:25:52;14.07;;;2.40;;
27847;SDS011;15212;48.830;8.730;2023-01-10T04:28:21;4.25;;;1.90;;
27847;SDS011;15212;48.830;8.730;2023-01-10T04:30:49;8.93;;;2.50;;
27847;SDS011;15212;48.830;8.730;2023-01-10T04:33:17;16.97;;;2.62;;
27847;SDS011;15212;48.830;8.730;2023-01-10T04:35:52;19.48;;;3.30;;
27847;SDS011;15212;48.830;8.730;2023-01-10T04:38:17;15.32;;;2.20;;
27847;SDS011;15212;48.830;8.730;2023-01-10T04:40:58;11.45;;;2.83;;
27847;SDS011;15212;48.830;8.730;2023-01-10T04:43:23;14.63;;;2.40;;
27847;SDS011;15212;48.830;8.730;2023-01-10T04:45:52;8.93;;;2.10;;
27847;SDS011;15212;48.830;8.730;2023-01-10T04:48:20;4.33;;;2.12;;
27847;SDS011;15212;48.830;8.730;2023-01-10T04:50:49;10.45;;;2.12;;
27847;SDS011;15212;48.830;8.730;2023-01-10T04:53:19;14.47;;;2.52;;
27847;SDS011;15212;48.830;8.730;2023-01-10T04:55:48;11.57;;;2.50;;
27847;SDS011;15212;48.830;8.730;2023-01-10T04:58:16;22.77;;;3.85;;
27847;SDS011;15212;48.830;8.730;2023-01-10T05:00:45;18.37;;;2.62;;
27847;SDS011;15212;48.830;8.730;2023-01-10T05:03:13;15.05;;;2.20;;
27847;SDS011;15212;48.830;8.730;2023-01-10T05:05:43;12.80;;;2.22;;
27847;SDS011;15212;48.830;8.730;2023-01-10T05:08:11;6.50;;;1.75;;
27847;SDS011;15212;48.830;8.730;2023-01-10T05:10:40;14.28;;;2.22;;
27847;SDS011;15212;48.830;8.730;2023-01-10T05:13:08;10.35;;;2.00;;
27847;SDS011;15212;48.830;8.730;2023-01-10T05:15:36;12.03;;;2.30;;
27847;SDS011;15212;48.830;8.730;2023-01-10T05:18:05;15.98;;;2.08;;
27847;SDS011;15212;48.830;8.730;2023-01-10T05:20:33;10.28;;;1.80;;
27847;SDS011;15212;48.830;8.730;2023-01-10T05:23:01;12.73;;;1.87;;
27847;SDS011;15212;48.830;8.730;2023-01-10T05:25:30;9.38;;;1.95;;
27847;SDS011;15212;48.830;8.730;2023-01-10T05:27:58;20.88;;;3.62;;
27847;SDS011;15212;48.830;8.730;2023-01-10T05:30:27;6.75;;;2.08;;
27847;SDS011;15212;48.830;8.730;2023-01-10T05:32:55;12.63;;;1.45;;
27847;SDS011;15212;48.830;8.730;2023-01-10T05:35:23;6.47;;;1.77;;
27847;SDS011;15212;48.830;8.730;2023-01-10T05:37:52;15.43;;;1.90;;
27847;SDS011;15212;48.830;8.730;2023-01-10T05:40:20;6.12;;;1.52;;
27847;SDS011;15212;48.830;8.730;2023-01-10T05:42:48;8.20;;;1.52;;
27847;SDS011;15212;48.830;8.730;2023-01-10T05:45:17;8.00;;;1.35;;
27847;SDS011;15212;48.830;8.730;2023-01-10T05:47:45;6.12;;;1.37;;
27847;SDS011;15212;48.830;8.730;2023-01-10T05:50:14;10.25;;;1.60;;
27847;SDS011;15212;48.830;8.730;2023-01-10T05:52:42;9.20;;;1.98;;
27847;SDS011;15212;48.830;8.730;2023-01-10T05:55:10;11.15;;;2.00;;
27847;SDS011;15212;48.830;8.730;2023-01-10T05:57:39;7.37;;;1.77;;
27847;SDS011;15212;48.830;8.730;2023-01-10T06:00:08;14.45;;;1.67;;
27847;SDS011;15212;48.830;8.730;2023-01-10T06:02:37;8.85;;;1.52;;
27847;SDS011;15212;48.830;8.730;2023-01-10T06:05:05;8.28;;;1.60;;
27847;SDS011;15212;48.830;8.730;2023-01-10T06:07:34;9.00;;;1.72;;
27847;SDS011;15212;48.830;8.730;2023-01-10T06:10:03;14.05;;;1.77;;
27847;SDS011;15212;48.830;8.730;2023-01-10T06:12:32;12.47;;;2.30;;
27847;SDS011;15212;48.830;8.730;2023-01-10T06:15:00;8.13;;;2.02;;
27847;SDS011;15212;48.830;8.730;2023-01-10T06:17:29;11.68;;;1.75;;
27847;SDS011;15212;48.830;8.730;2023-01-10T06:19:57;14.85;;;1.57;;
27847;SDS011;15212;48.830;8.730;2023-01-10T06:22:25;12.40;;;1.50;;
27847;SDS011;15212;48.830;8.730;2023-01-10T06:24:54;18.42;;;2.98;;
27847;SDS011;15212;48.830;8.730;2023-01-10T06:27:22;15.80;;;1.70;;
27847;SDS011;15212;48.830;8.730;2023-01-10T06:29:51;8.38;;;2.20;;
27847;SDS011;15212;48.830;8.730;2023-01-10T06:32:19;14.85;;;1.87;;
27847;SDS011;15212;48.830;8.730;2023-01-10T06:34:47;8.28;;;2.08;;
27847;SDS011;15212;48.830;8.730;2023-01-10T06:37:16;8.10;;;1.65;;
27847;SDS011;15212;48.830;8.730;2023-01-10T06:39:44;12.25;;;1.87;;
27847;SDS011;15212;48.830;8.730;2023-01-10T06:42:13;16.70;;;1.70;;
27847;SDS011;15212;48.830;8.730;2023-01-10T06:44:41;12.68;;;1.85;;
27847;SDS011;15212;48.830;8.730;2023-01-10T06:47:09;11.08;;;2.15;;
27847;SDS011;15212;48.830;8.730;2023-01-10T06:49:38;13.98;;;2.10;;
27847;SDS011;15212;48.830;8.730;2023-01-10T06:52:06;14.40;;;2.08;;
27847;SDS011;15212;48.830;8.730;2023-01-10T06:54:34;16.25;;;2.45;;
27847;SDS011;15212;48.830;8.730;2023-01-10T06:57:03;9.38;;;2.10;;
27847;SDS011;15212;48.830;8.730;2023-01-10T06:59:31;16.45;;;2.00;;
27847;SDS011;15212;48.830;8.730;2023-01-10T07:01:59;11.75;;;2.10;;
27847;SDS011;15212;48.830;8.730;2023-01-10T07:04:28;9.40;;;2.00;;
27847;SDS011;15212;48.830;8.730;2023-01-10T07:06:56;11.57;;;2.58;;
27847;SDS011;15212;48.830;8.730;2023-01-10T07:09:25;20.23;;;2.05;;
27847;SDS011;15212;48.830;8.730;2023-01-10T07:11:54;9.78;;;2.33;;
27847;SDS011;15212;48.830;8.730;2023-01-10T07:14:22;13.35;;;2.15;;
27847;SDS011;15212;48.830;8.730;2023-01-10T07:16:51;8.80;;;2.35;;
27847;SDS011;15212;48.830;8.730;2023-01-10T07:19:19;12.10;;;2.35;;
27847;SDS011;15212;48.830;8.730;2023-01-10T07:21:47;9.25;;;2.25;;
27847;SDS011;15212;48.830;8.730;2023-01-10T07:24:16;8.18;;;2.17;;
27847;SDS011;15212;48.830;8.730;2023-01-10T07:26:44;6.00;;;1.85;;
27847;SDS011;15212;48.830;8.730;2023-01-10T07:29:12;11.75;;;2.12;;
27847;SDS011;15212;48.830;8.730;2023-01-10T07:31:41;11.60;;;2.80;;
27847;SDS011;15212;48.830;8.730;2023-01-10T07:34:09;12.80;;;2.10;;
27847;SDS011;15212;48.830;8.730;2023-01-10T07:36:38;11.55;;;2.15;;
27847;SDS011;15212;48.830;8.730;2023-01-10T07:39:07;9.05;;;2.25;;
27847;SDS011;15212;48.830;8.730;2023-01-10T07:41:35;11.43;;;2.10;;
27847;SDS011;15212;48.830;8.730;2023-01-10T07:44:03;11.78;;;2.10;;
27847;SDS011;15212;48.830;8.730;2023-01-10T07:46:32;7.80;;;2.58;;
27847;SDS011;15212;48.830;8.730;2023-01-10T07:49:00;5.87;;;2.25;;
27847;SDS011;15212;48.830;8.730;2023-01-10T07:51:29;15.13;;;2.47;;
27847;SDS011;15212;48.830;8.730;2023-01-10T07:53:57;13.38;;;2.42;;
27847;SDS011;15212;48.830;8.730;2023-01-10T07:56:26;12.13;;;2.52;;
27847;SDS011;15212;48.830;8.730;2023-01-10T07:58:55;9.25;;;2.27;;
27847;SDS011;15212;48.830;8.730;2023-01-10T08:01:23;12.70;;;2.35;;
27847;SDS011;15212;48.830;8.730;2023-01-10T08:03:52;6.20;;;2.12;;
27847;SDS011;15212;48.830;8.730;2023-01-10T08:06:20;9.98;;;2.02;;
27847;SDS011;15212;48.830;8.730;2023-01-10T08:08:48;11.83;;;2.75;;
27847;SDS011;15212;48.830;8.730;2023-01-10T08:11:17;10.82;;;3.47;;
27847;SDS011;15212;48.830;8.730;2023-01-10T08:13:45;17.42;;;3.15;;
27847;SDS011;15212;48.830;8.730;2023-01-10T08:16:13;12.10;;;2.40;;
27847;SDS011;15212;48.830;8.730;2023-01-10T08:18:42;11.43;;;1.70;;
27847;SDS011;15212;48.830;8.730;2023-01-10T08:21:10;7.22;;;2.27;;
27847;SDS011;15212;48.830;8.730;2023-01-10T08:23:39;9.83;;;2.33;;
27847;SDS011;15212;48.830;8.730;2023-01-10T08:26:07;8.65;;;1.82;;
27847;SDS011;15212;48.830;8.730;2023-01-10T08:28:35;14.40;;;2.10;;
27847;SDS011;15212;48.830;8.730;2023-01-10T08:31:05;9.75;;;2.37;;
27847;SDS011;15212;48.830;8.730;2023-01-10T08:33:37;14.03;;;2.22;;
27847;SDS011;15212;48.830;8.730;2023-01-10T08:36:13;10.13;;;2.52;;
27847;SDS011;15212;48.830;8.730;2023-01-10T08:38:44;11.73;;;1.82;;
27847;SDS011;15212;48.830;8.730;2023-01-10T08:41:12;7.53;;;1.85;;
27847;SDS011;15212;48.830;8.730;2023-01-10T08:43:41;17.20;;;2.60;;
27847;SDS011;15212;48.830;8.730;2023-01-10T08:46:09;11.55;;;1.90;;
27847;SDS011;15212;48.830;8.730;2023-01-10T08:48:38;12.50;;;2.15;;
27847;SDS011;15212;48.830;8.730;2023-01-10T08:51:07;11.28;;;1.55;;
27847;SDS011;15212;48.830;8.730;2023-01-10T08:53:37;9.55;;;2.08;;
27847;SDS011;15212;48.830;8.730;2023-01-10T08:56:06;10.65;;;2.00;;
27847;SDS011;15212;48.830;8.730;2023-01-10T08:58:35;20.35;;;2.50;;
27847;SDS011;15212;48.830;8.730;2023-01-10T09:01:05;9.25;;;1.95;;
27847;SDS011;15212;48.830;8.730;2023-01-10T09:03:36;9.13;;;1.77;;
27847;SDS011;15212;48.830;8.730;2023-01-10T09:06:05;10.13;;;1.77;;
27847;SDS011;15212;48.830;8.730;2023-01-10T09:08:34;8.45;;;1.70;;
27847;SDS011;15212;48.830;8.730;2023-01-10T09:11:03;20.17;;;2.00;;
27847;SDS011;15212;48.830;8.730;2023-01-10T09:13:32;10.63;;;2.17;;
27847;SDS011;15212;48.830;8.730;2023-01-10T09:16:01;10.60;;;1.20;;
27847;SDS011;15212;48.830;8.730;2023-01-10T09:18:29;10.08;;;1.77;;
27847;SDS011;15212;48.830;8.730;2023-01-10T09:20:58;4.62;;;1.45;;
27847;SDS011;15212;48.830;8.730;2023-01-10T09:23:28;5.00;;;1.42;;
27847;SDS011;15212;48.830;8.730;2023-01-10T09:25:56;6.50;;;1.27;;
27847;SDS011;15212;48.830;8.730;2023-01-10T09:28:27;5.00;;;1.20;;
27847;SDS011;15212;48.830;8.730;2023-01-10T09:30:55;3.65;;;1.20;;
27847;SDS011;15212;48.830;8.730;2023-01-10T09:33:25;9.48;;;1.32;;
27847;SDS011;15212;48.830;8.730;2023-01-10T09:35:56;10.32;;;1.25;;
27847;SDS011;15212;48.830;8.730;2023-01-10T09:38:24;8.48;;;1.52;;
27847;SDS011;15212;48.830;8.730;2023-01-10T09:49:38;5.87;;;1.27;;
27847;SDS011;15212;48.830;8.730;2023-01-10T09:52:21;8.98;;;1.12;;
27847;SDS011;15212;48.830;8.730;2023-01-10T09:55:24;6.83;;;1.20;;
27847;SDS011;15212;48.830;8.730;2023-01-10T09:58:06;4.97;;;1.02;;
27847;SDS011;15212;48.830;8.730;2023-01-10T10:00:38;6.42;;;1.15;;
27847;SDS011;15212;48.830;8.730;2023-01-10T10:06:12;11.50;;;1.35;;
27847;SDS011;15212;48.830;8.730;2023-01-10T10:08:42;7.92;;;1.42;;
27847;SDS011;15212;48.830;8.730;2023-01-10T10:11:28;9.88;;;1.35;;
27847;SDS011;15212;48.830;8.730;2023-01-10T10:16:45;9.30;;;1.60;;
27847;SDS011;15212;48.830;8.730;2023-01-10T10:20:03;6.20;;;1.22;;
27847;SDS011;15212;48.830;8.730;2023-01-10T10:22:56;8.20;;;1.42;;
27847;SDS011;15212;48.830;8.730;2023-01-10T10:31:15;8.65;;;1.87;;
27847;SDS011;15212;48.830;8.730;2023-01-10T10:37:12;4.25;;;0.93;;
27847;SDS011;15212;48.830;8.730;2023-01-10T10:39:55;7.75;;;1.50;;
27847;SDS011;15212;48.830;8.730;2023-01-10T10:42:33;3.03;;;1.00;;
27847;SDS011;15212;48.830;8.730;2023-01-10T10:48:19;11.57;;;1.30;;
27847;SDS011;15212;48.830;8.730;2023-01-10T10:54:00;7.42;;;1.25;;
27847;SDS011;15212;48.830;8.730;2023-01-10T10:56:30;8.38;;;1.30;;
27847;SDS011;15212;48.830;8.730;2023-01-10T10:58:59;7.83;;;1.47;;
27847;SDS011;15212;48.830;8.730;2023-01-10T11:01:27;5.58;;;1.30;;
27847;SDS011;15212;48.830;8.730;2023-01-10T11:04:02;7.33;;;1.35;;
27847;SDS011;15212;48.830;8.730;2023-01-10T11:06:29;4.22;;;1.57;;
27847;SDS011;15212;48.830;8.730;2023-01-10T11:09:00;15.28;;;1.62;;
27847;SDS011;15212;48.830;8.730;2023-01-10T11:11:39;5.17;;;1.20;;
27847;SDS011;15212;48.830;8.730;2023-01-10T11:14:11;7.62;;;1.57;;
27847;SDS011;15212;48.830;8.730;2023-01-10T11:16:41;6.37;;;1.25;;
27847;SDS011;15212;48.830;8.730;2023-01-10T11:19:20;10.43;;;1.40;;
27847;SDS011;15212;48.830;8.730;2023-01-10T11:21:52;12.90;;;1.52;;
27847;SDS011;15212;48.830;8.730;2023-01-10T11:24:32;5.37;;;1.10;;
27847;SDS011;15212;48.830;8.730;2023-01-10T11:27:13;9.45;;;1.22;;
27847;SDS011;15212;48.830;8.730;2023-01-10T11:29:57;8.50;;;1.30;;
27847;SDS011;15212;48.830;8.730;2023-01-10T11:32:30;7.22;;;1.27;;
27847;SDS011;15212;48.830;8.730;2023-01-10T11:37:43;7.22;;;0.93;;
27847;SDS011;15212;48.830;8.730;2023-01-10T11:40:25;5.05;;;1.02;;
27847;SDS011;15212;48.830;8.730;2023-01-10T11:42:56;4.85;;;1.35;;
27847;SDS011;15212;48.830;8.730;2023-01-10T11:45:29;8.55;;;1.10;;
27847;SDS011;15212;48.830;8.730;2023-01-10T11:48:06;13.75;;;1.52;;
27847;SDS011;15212;48.830;8.730;2023-01-10T11:50:47;12.58;;;1.65;;
27847;SDS011;15212;48.830;8.730;2023-01-10T11:56:04;7.20;;;1.37;;
27847;SDS011;15212;48.830;8.730;2023-01-10T11:58:34;14.18;;;1.67;;
27847;SDS011;15212;48.830;8.730;2023-01-10T12:01:04;8.55;;;1.30;;
27847;SDS011;15212;48.830;8.730;2023-01-10T12:03:35;9.33;;;1.15;;
27847;SDS011;15212;48.830;8.730;2023-01-10T12:06:05;10.38;;;1.30;;
27847;SDS011;15212;48.830;8.730;2023-01-10T12:08:42;9.23;;;2.17;;
27847;SDS011;15212;48.830;8.730;2023-01-10T12:13:51;4.35;;;1.12;;
27847;SDS011;15212;48.830;8.730;2023-01-10T12:16:27;6.53;;;1.55;;
27847;SDS011;15212;48.830;8.730;2023-01-10T12:19:01;10.03;;;1.32;;
27847;SDS011;15212;48.830;8.730;2023-01-10T12:21:39;4.60;;;0.95;;
27847;SDS011;15212;48.830;8.730;2023-01-10T12:24:11;3.62;;;0.88;;
27847;SDS011;15212;48.830;8.730;2023-01-10T12:26:43;7.25;;;1.05;;
27847;SDS011;15212;48.830;8.730;2023-01-10T12:29:15;9.68;;;1.50;;
27847;SDS011;15212;48.830;8.730;2023-01-10T12:32:14;10.53;;;1.55;;
27847;SDS011;15212;48.830;8.730;2023-01-10T12:35:03;6.40;;;1.30;;
27847;SDS011;15212;48.830;8.730;2023-01-10T12:40:33;4.03;;;0.90;;
27847;SDS011;15212;48.830;8.730;2023-01-10T12:43:51;7.97;;;1.00;;
27847;SDS011;15212;48.830;8.730;2023-01-10T12:46:09;8.50;;;1.00;;
27847;SDS011;15212;48.830;8.730;2023-01-10T12:49:00;4.42;;;1.10;;
27847;SDS011;15212;48.830;8.730;2023-01-10T12:51:33;9.68;;;1.02;;
27847;SDS011;15212;48.830;8.730;2023-01-10T12:54:10;7.00;;;1.20;;
27847;SDS011;15212;48.830;8.730;2023-01-10T12:56:36;7.72;;;1.10;;
27847;SDS011;15212;48.830;8.730;2023-01-10T12:59:52;7.53;;;1.52;;
27847;SDS011;15212;48.830;8.730;2023-01-10T13:01:53;5.20;;;1.02;;
27847;SDS011;15212;48.830;8.730;2023-01-10T13:04:20;5.10;;;0.80;;
27847;SDS011;15212;48.830;8.730;2023-01-10T13:06:51;5.35;;;1.02;;
27847;SDS011;15212;48.830;8.730;2023-01-10T13:09:22;5.12;;;0.75;;
27847;SDS011;15212;48.830;8.730;2023-01-10T13:11:58;7.17;;;1.10;;
27847;SDS011;15212;48.830;8.730;2023-01-10T13:14:40;8.93;;;1.40;;
27847;SDS011;15212;48.830;8.730;2023-01-10T13:22:57;2.83;;;0.90;;
27847;SDS011;15212;48.830;8.730;2023-01-10T13:25:31;6.08;;;1.00;;
27847;SDS011;15212;48.830;8.730;2023-01-10T13:28:04;5.50;;;1.15;;
27847;SDS011;15212;48.830;8.730;2023-01-10T13:30:36;7.00;;;1.20;;
27847;SDS011;15212;48.830;8.730;2023-01-10T13:33:19;3.42;;;0.90;;
27847;SDS011;15212;48.830;8.730;2023-01-10T13:35:52;4.20;;;0.93;;
27847;SDS011;15212;48.830;8.730;2023-01-10T13:38:32;3.27;;;0.85;;
27847;SDS011;15212;48.830;8.730;2023-01-10T13:41:07;4.17;;;0.80;;
27847;SDS011;15212;48.830;8.730;2023-01-10T13:43:37;5.05;;;1.22;;
27847;SDS011;15212;48.830;8.730;2023-01-10T13:51:22;3.58;;;1.40;;
27847;SDS011;15212;48.830;8.730;2023-01-10T13:54:01;6.20;;;0.98;;
27847;SDS011;15212;48.830;8.730;2023-01-10T13:56:37;3.37;;;0.93;;
27847;SDS011;15212;48.830;8.730;2023-01-10T13:59:11;6.08;;;0.88;;
27847;SDS011;15212;48.830;8.730;2023-01-10T14:02:15;3.58;;;0.90;;
27847;SDS011;15212;48.830;8.730;2023-01-10T14:05:07;6.03;;;0.90;;
27847;SDS011;15212;48.830;8.730;2023-01-10T14:07:50;4.90;;;0.98;;
27847;SDS011;15212;48.830;8.730;2023-01-10T14:10:21;4.67;;;0.85;;
27847;SDS011;15212;48.830;8.730;2023-01-10T14:12:58;3.17;;;0.80;;
27847;SDS011;15212;48.830;8.730;2023-01-10T14:15:38;4.87;;;1.00;;
27847;SDS011;15212;48.830;8.730;2023-01-10T14:18:31;5.30;;;1.12;;
27847;SDS011;15212;48.830;8.730;2023-01-10T14:23:36;3.17;;;0.75;;
27847;SDS011;15212;48.830;8.730;2023-01-10T14:26:14;5.12;;;1.15;;
27847;SDS011;15212;48.830;8.730;2023-01-10T14:29:06;8.75;;;1.00;;
27847;SDS011;15212;48.830;8.730;2023-01-10T14:31:42;2.05;;;0.80;;
27847;SDS011;15212;48.830;8.730;2023-01-10T14:34:27;4.45;;;1.05;;
27847;SDS011;15212;48.830;8.730;2023-01-10T14:37:02;8.30;;;1.40;;
27847;SDS011;15212;48.830;8.730;2023-01-10T14:39:35;5.83;;;1.20;;
27847;SDS011;15212;48.830;8.730;2023-01-10T14:42:05;6.12;;;1.10;;
27847;SDS011;15212;48.830;8.730;2023-01-10T14:44:41;4.15;;;1.02;;
27847;SDS011;15212;48.830;8.730;2023-01-10T14:47:26;4.95;;;0.93;;
27847;SDS011;15212;48.830;8.730;2023-01-10T14:49:58;7.05;;;1.10;;
27847;SDS011;15212;48.830;8.730;2023-01-10T14:52:29;3.87;;;1.12;;
27847;SDS011;15212;48.830;8.730;2023-01-10T14:55:17;6.78;;;1.37;;
27847;SDS011;15212;48.830;8.730;2023-01-10T14:57:54;9.38;;;1.17;;
27847;SDS011;15212;48.830;8.730;2023-01-10T15:00:31;3.92;;;0.93;;
27847;SDS011;15212;48.830;8.730;2023-01-10T15:03:02;4.10;;;0.90;;
27847;SDS011;15212;48.830;8.730;2023-01-10T15:05:36;4.40;;;1.20;;
27847;SDS011;15212;48.830;8.730;2023-01-10T15:08:16;5.65;;;1.10;;
27847;SDS011;15212;48.830;8.730;2023-01-10T15:10:52;6.65;;;1.55;;
27847;SDS011;15212;48.830;8.730;2023-01-10T15:13:29;4.28;;;1.07;;
27847;SDS011;15212;48.830;8.730;2023-01-10T15:16:01;3.25;;;1.30;;
27847;SDS011;15212;48.830;8.730;2023-01-10T15:21:12;4.42;;;1.20;;
27847;SDS011;15212;48.830;8.730;2023-01-10T15:23:45;5.40;;;1.00;;
27847;SDS011;15212;48.830;8.730;2023-01-10T15:29:13;4.65;;;1.10;;
27847;SDS011;15212;48.830;8.730;2023-01-10T15:31:44;7.92;;;1.30;;
27847;SDS011;15212;48.830;8.730;2023-01-10T15:34:18;5.30;;;1.25;;
27847;SDS011;15212;48.830;8.730;2023-01-10T15:36:50;5.42;;;1.12;;
27847;SDS011;15212;48.830;8.730;2023-01-10T15:39:28;6.33;;;1.15;;
27847;SDS011;15212;48.830;8.730;2023-01-10T15:44:43;4.53;;;1.00;;
27847;SDS011;15212;48.830;8.730;2023-01-10T15:48:04;9.40;;;1.05;;
27847;SDS011;15212;48.830;8.730;2023-01-10T15:50:21;4.78;;;1.20;;
27847;SDS011;15212;48.830;8.730;2023-01-10T15:53:11;3.37;;;1.27;;
27847;SDS011;15212;48.830;8.730;2023-01-10T15:55:37;6.28;;;1.40;;
27847;SDS011;15212;48.830;8.730;2023-01-10T15:58:21;9.48;;;1.67;;
27847;SDS011;15212;48.830;8.730;2023-01-10T16:01:01;4.37;;;1.40;;
27847;SDS011;15212;48.830;8.730;2023-01-10T16:03:31;7.03;;;1.25;;
27847;SDS011;15212;48.830;8.730;2023-01-10T16:06:02;3.45;;;1.20;;
27847;SDS011;15212;48.830;8.730;2023-01-10T16:08:37;4.45;;;1.27;;
27847;SDS011;15212;48.830;8.730;2023-01-10T16:11:06;7.60;;;1.40;;
27847;SDS011;15212;48.830;8.730;2023-01-10T16:13:38;11.48;;;1.87;;
27847;SDS011;15212;48.830;8.730;2023-01-10T16:16:07;9.53;;;1.20;;
27847;SDS011;15212;48.830;8.730;2023-01-10T16:18:39;5.80;;;1.45;;
27847;SDS011;15212;48.830;8.730;2023-01-10T16:21:09;8.55;;;1.30;;
27847;SDS011;15212;48.830;8.730;2023-01-10T16:23:41;3.08;;;1.07;;
27847;SDS011;15212;48.830;8.730;2023-01-10T16:26:11;9.00;;;1.37;;
27847;SDS011;15212;48.830;8.730;2023-01-10T16:28:40;5.28;;;1.30;;
27847;SDS011;15212;48.830;8.730;2023-01-10T16:31:10;5.17;;;1.07;;
27847;SDS011;15212;48.830;8.730;2023-01-10T16:33:41;5.70;;;1.22;;
27847;SDS011;15212;48.830;8.730;2023-01-10T16:36:14;4.58;;;1.42;;
27847;SDS011;15212;48.830;8.730;2023-01-10T16:38:45;9.63;;;1.62;;
27847;SDS011;15212;48.830;8.730;2023-01-10T16:41:14;10.68;;;1.65;;
27847;SDS011;15212;48.830;8.730;2023-01-10T16:44:01;7.92;;;1.42;;
27847;SDS011;15212;48.830;8.730;2023-01-10T16:46:29;8.85;;;2.15;;
27847;SDS011;15212;48.830;8.730;2023-01-10T16:48:58;13.35;;;1.42;;
27847;SDS011;15212;48.830;8.730;2023-01-10T16:51:27;3.52;;;1.35;;